createdAt,value
2018-09-06T00:00:12.740Z,18.30
2018-09-06T00:02:46.984Z,18.30
2018-09-06T00:05:16.166Z,18.20
2018-09-06T00:07:45.726Z,18.20
2018-09-06T00:10:16.159Z,18.00
2018-09-06T00:12:46.925Z,18.10
2018-09-06T00:15:18.975Z,18.20
2018-09-06T00:17:51.102Z,18.20
2018-09-06T00:20:19.817Z,18.20
2018-09-06T00:22:49.331Z,18.10
2018-09-06T00:25:18.468Z,18.00
2018-09-06T00:27:49.227Z,18.00
2018-09-06T00:30:20.154Z,17.90
2018-09-06T00:32:48.726Z,17.90
2018-09-06T00:35:19.030Z,17.90
2018-09-06T00:37:50.695Z,17.90
2018-09-06T00:40:23.058Z,17.90
2018-09-06T00:42:51.356Z,17.90
2018-09-06T00:45:21.962Z,17.80
2018-09-06T00:47:52.519Z,17.90
2018-09-06T00:50:22.990Z,17.90
2018-09-06T00:52:53.753Z,18.00
2018-09-06T00:55:22.533Z,18.00
2018-09-06T00:57:50.922Z,18.00
2018-09-06T01:00:19.898Z,17.90
2018-09-06T01:02:48.191Z,17.90
2018-09-06T01:05:17.084Z,17.90
2018-09-06T01:07:46.146Z,18.00
2018-09-06T01:10:16.646Z,18.00
2018-09-06T01:12:45.345Z,18.00
2018-09-06T01:15:14.242Z,17.90
2018-09-06T01:17:43.926Z,18.00
2018-09-06T01:20:16.958Z,18.00
2018-09-06T01:22:45.898Z,18.00
2018-09-06T01:25:17.023Z,18.00
2018-09-06T01:27:47.584Z,18.00
2018-09-06T01:30:16.446Z,18.00
2018-09-06T01:32:44.808Z,18.00
2018-09-06T01:35:14.947Z,17.90
2018-09-06T01:37:43.910Z,18.00
2018-09-06T01:40:13.207Z,17.90
2018-09-06T01:42:42.038Z,17.90
2018-09-06T01:45:13.301Z,17.90
2018-09-06T01:47:43.548Z,17.90
2018-09-06T01:50:16.546Z,17.90
2018-09-06T01:52:49.975Z,17.90
2018-09-06T01:55:20.842Z,17.90
2018-09-06T01:57:49.377Z,17.90
2018-09-06T02:00:18.297Z,17.80
2018-09-06T02:02:46.585Z,17.80
2018-09-06T02:05:19.474Z,17.80
2018-09-06T02:07:47.775Z,17.80
2018-09-06T02:10:18.036Z,17.70
2018-09-06T02:12:48.295Z,17.70
2018-09-06T02:15:17.905Z,17.70
2018-09-06T02:17:48.654Z,17.70
2018-09-06T02:20:17.522Z,17.70
2018-09-06T02:22:47.216Z,17.70
2018-09-06T02:25:20.657Z,17.80
2018-09-06T02:27:52.726Z,17.80
2018-09-06T02:30:22.625Z,17.70
2018-09-06T02:32:52.000Z,17.70
2018-09-06T02:35:20.793Z,17.70
2018-09-06T02:37:51.522Z,17.70
2018-09-06T02:40:28.231Z,17.70
2018-09-06T02:42:57.571Z,17.70
2018-09-06T02:45:26.280Z,17.70
2018-09-06T02:47:57.054Z,17.70
2018-09-06T02:50:31.437Z,17.60
2018-09-06T02:53:01.129Z,17.70
2018-09-06T02:55:31.950Z,17.60
2018-09-06T02:58:01.542Z,17.60
2018-09-06T03:00:32.781Z,17.60
2018-09-06T03:03:02.565Z,17.60
2018-09-06T03:05:30.771Z,17.70
2018-09-06T03:07:59.890Z,17.70
2018-09-06T03:10:31.109Z,17.70
2018-09-06T03:12:59.788Z,17.70
2018-09-06T03:15:28.042Z,17.70
2018-09-06T03:17:56.227Z,17.60
2018-09-06T03:20:24.446Z,17.60
2018-09-06T03:22:52.640Z,17.60
2018-09-06T03:25:20.858Z,17.70
2018-09-06T03:27:49.066Z,17.70
2018-09-06T03:30:17.286Z,17.70
2018-09-06T03:32:45.506Z,17.70
2018-09-06T03:35:13.715Z,17.70
2018-09-06T03:37:41.924Z,17.70
2018-09-06T03:40:10.264Z,17.60
2018-09-06T03:42:39.266Z,17.70
2018-09-06T03:45:07.496Z,17.60
2018-09-06T03:47:35.711Z,17.70
2018-09-06T03:50:03.918Z,17.60
2018-09-06T03:52:32.142Z,17.70
2018-09-06T03:55:00.509Z,17.60
2018-09-06T03:57:28.715Z,17.60
2018-09-06T03:59:56.914Z,17.70
2018-09-06T04:02:25.206Z,17.60
2018-09-06T04:04:53.417Z,17.60
2018-09-06T04:07:22.521Z,17.60
2018-09-06T04:09:51.133Z,17.60
2018-09-06T04:12:19.588Z,17.70
2018-09-06T04:14:51.266Z,17.70
2018-09-06T04:17:19.543Z,17.60
2018-09-06T04:19:47.962Z,17.60
2018-09-06T04:22:16.450Z,17.70
2018-09-06T04:24:44.679Z,17.70
2018-09-06T04:27:12.987Z,17.70
2018-09-06T04:29:41.283Z,17.70
2018-09-06T04:32:09.533Z,17.60
2018-09-06T04:34:37.754Z,17.70
2018-09-06T04:37:06.213Z,17.70
2018-09-06T04:39:34.449Z,17.70
2018-09-06T04:42:02.750Z,17.70
2018-09-06T04:44:31.103Z,17.70
2018-09-06T04:46:59.318Z,17.60
2018-09-06T04:49:27.548Z,17.70
2018-09-06T04:51:56.236Z,17.70
2018-09-06T04:54:24.425Z,17.70
2018-09-06T04:56:52.642Z,17.70
2018-09-06T04:59:21.381Z,17.70
2018-09-06T05:01:49.585Z,17.80
2018-09-06T05:04:17.810Z,17.90
2018-09-06T05:06:46.007Z,17.80
2018-09-06T05:09:15.221Z,17.80
2018-09-06T05:11:45.948Z,17.80
2018-09-06T05:14:14.658Z,17.90
2018-09-06T05:16:43.928Z,17.90
2018-09-06T05:19:12.979Z,17.90
2018-09-06T05:21:43.970Z,17.80
2018-09-06T05:24:13.038Z,17.80
2018-09-06T05:26:42.446Z,17.80
2018-09-06T05:29:13.143Z,17.70
2018-09-06T05:31:41.940Z,17.80
2018-09-06T05:34:10.823Z,17.90
2018-09-06T05:36:40.806Z,17.90
2018-09-06T05:39:12.314Z,17.80
2018-09-06T05:41:44.350Z,17.90
2018-09-06T05:44:14.411Z,17.90
2018-09-06T05:46:43.521Z,17.90
2018-09-06T05:49:13.238Z,18.00
2018-09-06T05:51:45.142Z,17.90
2018-09-06T05:54:14.927Z,17.90
2018-09-06T05:56:44.243Z,17.90
2018-09-06T05:59:15.171Z,17.90
2018-09-06T06:01:43.705Z,17.90
2018-09-06T06:04:13.487Z,18.00
2018-09-06T06:06:44.934Z,17.90
2018-09-06T06:09:17.722Z,17.90
2018-09-06T06:11:49.484Z,17.80
2018-09-06T06:14:25.070Z,17.90
2018-09-06T06:16:56.736Z,17.90
2018-09-06T06:19:27.615Z,17.90
2018-09-06T06:21:59.651Z,17.90
2018-09-06T06:24:29.772Z,17.90
2018-09-06T06:27:00.562Z,18.00
2018-09-06T06:29:28.882Z,17.90
2018-09-06T06:31:59.021Z,17.90
2018-09-06T06:34:27.715Z,17.90
2018-09-06T06:36:56.404Z,17.90
2018-09-06T06:39:24.638Z,17.90
2018-09-06T06:41:53.247Z,18.00
2018-09-06T06:44:22.542Z,18.00
2018-09-06T06:46:50.773Z,17.90
2018-09-06T06:49:19.146Z,18.00
2018-09-06T06:51:47.338Z,18.00
2018-09-06T06:54:15.526Z,18.10
2018-09-06T06:56:43.997Z,18.00
2018-09-06T06:59:12.218Z,18.00
2018-09-06T07:01:40.609Z,18.00
2018-09-06T07:04:09.089Z,18.10
2018-09-06T07:06:37.248Z,18.10
2018-09-06T07:09:08.165Z,18.00
2018-09-06T07:11:36.381Z,17.90
2018-09-06T07:14:04.574Z,18.00
2018-09-06T07:16:32.941Z,18.00
2018-09-06T07:19:01.192Z,18.00
2018-09-06T07:21:29.433Z,18.00
2018-09-06T07:23:58.155Z,18.10
2018-09-06T07:26:26.353Z,18.10
2018-09-06T07:28:54.553Z,18.30
2018-09-06T07:31:22.766Z,18.30
2018-09-06T07:33:51.514Z,18.40
2018-09-06T07:36:19.798Z,18.40
2018-09-06T07:38:48.021Z,18.60
2018-09-06T07:41:16.240Z,18.60
2018-09-06T07:43:44.562Z,18.50
2018-09-06T07:46:13.114Z,18.60
2018-09-06T07:48:41.486Z,18.70
2018-09-06T07:51:09.733Z,18.50
2018-09-06T07:53:38.400Z,18.40
2018-09-06T07:56:06.722Z,18.50
2018-09-06T07:58:34.926Z,18.70
2018-09-06T08:01:03.132Z,18.80
2018-09-06T08:03:31.357Z,18.80
2018-09-06T08:05:59.556Z,18.80
2018-09-06T08:08:28.044Z,18.80
2018-09-06T08:10:56.253Z,18.90
2018-09-06T08:13:24.614Z,18.80
2018-09-06T08:15:53.995Z,18.90
2018-09-06T08:18:22.398Z,18.80
2018-09-06T08:20:50.637Z,18.70
2018-09-06T08:23:18.885Z,18.70
2018-09-06T08:25:47.106Z,18.80
2018-09-06T08:28:17.121Z,18.80
2018-09-06T08:30:46.090Z,18.90
2018-09-06T08:33:14.324Z,18.90
2018-09-06T08:35:42.576Z,18.90
2018-09-06T08:38:10.782Z,18.70
2018-09-06T08:40:38.974Z,18.60
2018-09-06T08:43:07.294Z,18.70
2018-09-06T08:45:35.692Z,18.60
2018-09-06T08:48:05.099Z,18.70
2018-09-06T08:50:33.314Z,18.70
2018-09-06T08:53:01.533Z,18.70
2018-09-06T08:55:29.734Z,18.80
2018-09-06T08:57:57.930Z,18.90
2018-09-06T09:00:26.316Z,18.90
2018-09-06T09:02:54.614Z,19.00
2018-09-06T09:05:22.714Z,19.00
2018-09-06T09:07:51.310Z,19.00
2018-09-06T09:10:19.503Z,18.90
2018-09-06T09:12:47.843Z,19.00
2018-09-06T09:15:16.106Z,19.00
2018-09-06T09:17:44.303Z,18.90
2018-09-06T09:20:12.524Z,18.90
2018-09-06T09:22:40.825Z,18.80
2018-09-06T09:25:09.038Z,18.80
2018-09-06T09:27:37.249Z,18.90
2018-09-06T09:30:05.597Z,18.90
2018-09-06T09:32:33.802Z,18.90
2018-09-06T09:35:02.068Z,18.90
2018-09-06T09:37:30.583Z,18.90
2018-09-06T09:39:58.833Z,19.00
2018-09-06T09:42:27.186Z,19.00
2018-09-06T09:44:55.538Z,18.90
2018-09-06T09:49:52.291Z,19.10
2018-09-06T09:52:21.171Z,19.20
2018-09-06T09:54:49.357Z,19.20
2018-09-06T09:57:17.579Z,19.10
2018-09-06T09:59:45.889Z,19.10
2018-09-06T10:02:19.507Z,19.10
2018-09-06T10:04:53.286Z,19.10
2018-09-06T10:07:26.941Z,19.20
2018-09-06T10:09:55.218Z,19.30
2018-09-06T10:12:23.414Z,19.30
2018-09-06T10:14:51.748Z,19.30
2018-09-06T10:17:20.253Z,19.30
2018-09-06T10:19:48.846Z,19.40
2018-09-06T10:22:17.050Z,19.60
2018-09-06T10:24:45.446Z,19.80
2018-09-06T10:27:13.749Z,20.10
2018-09-06T10:29:41.950Z,20.10
2018-09-06T10:32:10.645Z,20.30
2018-09-06T10:34:39.120Z,20.40
2018-09-06T10:37:08.920Z,20.50
2018-09-06T10:39:39.446Z,20.40
2018-09-06T10:42:10.662Z,20.40
2018-09-06T10:44:39.499Z,20.50
2018-09-06T10:47:09.598Z,20.60
2018-09-06T10:49:38.749Z,20.70
2018-09-06T10:52:13.074Z,20.80
2018-09-06T10:54:42.051Z,20.70
2018-09-06T10:57:10.979Z,20.70
2018-09-06T10:59:40.418Z,20.60
2018-09-06T11:02:11.429Z,20.50
2018-09-06T11:04:42.618Z,20.80
2018-09-06T11:07:11.980Z,20.90
2018-09-06T11:09:44.873Z,20.40
2018-09-06T11:12:15.295Z,20.40
2018-09-06T11:14:45.897Z,20.40
2018-09-06T11:17:15.544Z,20.30
2018-09-06T11:19:44.346Z,20.20
2018-09-06T11:22:14.040Z,20.40
2018-09-06T11:24:46.889Z,20.50
2018-09-06T11:27:17.282Z,20.40
2018-09-06T11:29:46.987Z,20.20
2018-09-06T11:32:15.745Z,20.30
2018-09-06T11:34:46.143Z,20.40
2018-09-06T11:37:17.540Z,20.40
2018-09-06T11:39:50.251Z,20.30
2018-09-06T11:42:21.095Z,20.20
2018-09-06T11:44:52.530Z,20.20
2018-09-06T11:47:22.871Z,20.00
2018-09-06T11:49:57.550Z,20.00
2018-09-06T11:52:27.846Z,20.00
2018-09-06T11:54:59.158Z,20.00
2018-09-06T11:57:27.490Z,20.00
2018-09-06T12:00:00.540Z,19.60
2018-09-06T12:02:33.991Z,19.40
2018-09-06T12:05:02.712Z,19.10
2018-09-06T12:07:36.909Z,19.10
2018-09-06T12:10:06.862Z,19.20
2018-09-06T12:12:36.470Z,19.10
2018-09-06T12:15:04.923Z,18.90
2018-09-06T12:17:34.722Z,19.00
2018-09-06T12:20:03.122Z,19.00
2018-09-06T12:22:33.078Z,19.00
2018-09-06T12:25:04.733Z,19.00
2018-09-06T12:27:34.027Z,19.00
2018-09-06T12:30:02.305Z,19.00
2018-09-06T12:32:31.623Z,19.20
2018-09-06T12:34:59.954Z,19.10
2018-09-06T12:37:28.387Z,19.10
2018-09-06T12:39:56.824Z,19.10
2018-09-06T12:42:25.159Z,19.00
2018-09-06T12:44:53.672Z,19.00
2018-09-06T12:47:21.895Z,19.00
2018-09-06T12:49:50.262Z,19.10
2018-09-06T12:52:18.611Z,19.30
2018-09-06T12:54:46.948Z,19.30
2018-09-06T12:57:15.362Z,19.40
2018-09-06T12:59:43.570Z,19.50
2018-09-06T13:02:11.870Z,19.50
2018-09-06T13:04:40.089Z,19.40
2018-09-06T13:07:08.557Z,19.40
2018-09-06T13:09:36.838Z,19.40
2018-09-06T13:12:05.098Z,19.50
2018-09-06T13:14:33.308Z,19.70
2018-09-06T13:17:01.776Z,19.70
2018-09-06T13:19:29.981Z,19.60
2018-09-06T13:21:58.194Z,19.60
2018-09-06T13:24:26.541Z,19.60
2018-09-06T13:26:54.786Z,19.50
2018-09-06T13:29:23.986Z,19.70
2018-09-06T13:31:52.264Z,19.70
2018-09-06T13:34:20.550Z,19.80
2018-09-06T13:36:48.751Z,19.90
2018-09-06T13:39:17.527Z,20.00
2018-09-06T13:41:45.751Z,19.80
2018-09-06T13:44:14.226Z,19.70
2018-09-06T13:46:42.550Z,19.80
2018-09-06T13:49:11.809Z,19.80
2018-09-06T13:51:40.451Z,19.90
2018-09-06T13:54:08.690Z,19.90
2018-09-06T13:56:36.913Z,19.80
2018-09-06T13:59:05.219Z,19.90
2018-09-06T14:01:33.556Z,19.80
2018-09-06T14:04:01.770Z,19.80
2018-09-06T14:06:29.995Z,19.70
2018-09-06T14:08:58.314Z,19.50
2018-09-06T14:11:27.466Z,19.50
2018-09-06T14:13:56.048Z,19.50
2018-09-06T14:16:24.569Z,19.30
2018-09-06T14:18:52.774Z,19.40
2018-09-06T14:21:21.975Z,19.10
2018-09-06T14:23:51.385Z,19.20
2018-09-06T14:26:19.590Z,19.00
2018-09-06T14:28:47.858Z,19.00
2018-09-06T14:31:16.758Z,18.90
2018-09-06T14:33:44.974Z,18.80
2018-09-06T14:36:13.201Z,18.70
2018-09-06T14:38:41.510Z,18.70
2018-09-06T14:41:09.659Z,18.50
2018-09-06T14:43:37.908Z,18.50
2018-09-06T14:46:06.207Z,18.50
2018-09-06T14:48:34.406Z,18.40
2018-09-06T14:51:02.606Z,18.50
2018-09-06T14:53:30.814Z,18.50
2018-09-06T14:55:59.072Z,18.50
2018-09-06T14:58:27.289Z,18.50
2018-09-06T15:00:55.522Z,18.50
2018-09-06T15:03:24.770Z,18.50
2018-09-06T15:05:52.992Z,18.50
2018-09-06T15:08:21.234Z,18.50
2018-09-06T15:10:49.470Z,18.50
2018-09-06T15:13:18.521Z,18.50
2018-09-06T15:15:46.756Z,18.50
2018-09-06T15:18:15.056Z,18.40
2018-09-06T15:20:43.301Z,18.30
2018-09-06T15:23:11.630Z,18.20
2018-09-06T15:25:39.836Z,18.30
2018-09-06T15:28:08.508Z,18.40
2018-09-06T15:30:37.320Z,18.40
2018-09-06T15:33:06.690Z,18.40
2018-09-06T15:35:34.936Z,18.40
2018-09-06T15:38:04.668Z,18.50
2018-09-06T15:40:33.393Z,18.50
2018-09-06T15:43:01.602Z,18.50
2018-09-06T15:45:29.951Z,18.50
2018-09-06T15:47:58.176Z,18.50
2018-09-06T15:50:26.391Z,18.50
2018-09-06T15:52:54.626Z,18.50
2018-09-06T15:55:22.828Z,18.60
2018-09-06T15:57:51.049Z,18.70
2018-09-06T16:00:19.959Z,18.60
2018-09-06T16:02:48.526Z,18.50
2018-09-06T16:05:17.717Z,18.50
2018-09-06T16:07:47.071Z,18.40
2018-09-06T16:10:15.294Z,18.40
2018-09-06T16:12:43.499Z,18.60
2018-09-06T16:15:12.959Z,18.60
2018-09-06T16:17:42.066Z,18.70
2018-09-06T16:20:10.786Z,18.60
2018-09-06T16:22:39.980Z,18.40
2018-09-06T16:25:08.205Z,18.50
2018-09-06T16:27:36.417Z,18.60
2018-09-06T16:30:05.719Z,18.60
2018-09-06T16:32:33.978Z,18.50
2018-09-06T16:35:03.638Z,18.40
2018-09-06T16:37:32.229Z,18.40
2018-09-06T16:40:01.099Z,18.40
2018-09-06T16:42:29.344Z,18.40
2018-09-06T16:44:58.638Z,18.30
2018-09-06T16:47:27.337Z,18.20
2018-09-06T16:49:55.819Z,18.20
2018-09-06T16:52:24.536Z,18.10
2018-09-06T16:54:53.195Z,18.10
2018-09-06T16:57:21.430Z,18.10
2018-09-06T16:59:49.711Z,18.20
2018-09-06T17:02:17.909Z,18.20
2018-09-06T17:04:46.984Z,18.20
2018-09-06T17:07:15.534Z,18.20
2018-09-06T17:09:44.018Z,18.10
2018-09-06T17:12:12.222Z,18.10
2018-09-06T17:14:40.827Z,18.00
2018-09-06T17:17:09.074Z,18.10
2018-09-06T17:19:37.309Z,18.00
2018-09-06T17:22:06.819Z,18.00
2018-09-06T17:24:35.058Z,18.00
2018-09-06T17:27:03.378Z,18.10
2018-09-06T17:29:32.710Z,18.00
2018-09-06T17:32:02.559Z,18.00
2018-09-06T17:34:33.924Z,18.10
2018-09-06T17:37:06.545Z,18.00
2018-09-06T17:39:40.324Z,17.90
2018-09-06T17:42:15.982Z,17.90
2018-09-06T17:44:51.752Z,17.80
2018-09-06T17:47:19.987Z,17.80
2018-09-06T17:49:50.688Z,17.70
2018-09-06T17:52:18.996Z,17.60
2018-09-06T17:54:47.274Z,17.60
2018-09-06T17:57:15.691Z,17.60
2018-09-06T17:59:44.126Z,17.60
2018-09-06T18:02:13.458Z,17.60
2018-09-06T18:04:42.354Z,17.60
2018-09-06T18:07:12.059Z,17.40
2018-09-06T18:09:41.669Z,17.40
2018-09-06T18:12:10.353Z,17.40
2018-09-06T18:14:38.799Z,17.40
2018-09-06T18:17:10.604Z,17.40
2018-09-06T18:19:38.990Z,17.40
2018-09-06T18:22:09.552Z,17.40
2018-09-06T18:24:40.790Z,17.30
2018-09-06T18:27:09.432Z,17.20
2018-09-06T18:29:37.698Z,17.20
2018-09-06T18:32:06.751Z,17.20
2018-09-06T18:34:35.117Z,17.20
2018-09-06T18:37:08.902Z,17.20
2018-09-06T18:39:37.718Z,17.10
2018-09-06T18:42:07.331Z,17.10
2018-09-06T18:44:38.230Z,17.20
2018-09-06T18:47:08.628Z,17.10
2018-09-06T18:49:37.055Z,17.10
2018-09-06T18:52:05.371Z,17.10
2018-09-06T18:54:37.453Z,17.10
2018-09-06T18:57:09.593Z,17.10
2018-09-06T18:59:37.927Z,17.10
2018-09-06T19:02:07.001Z,17.10
2018-09-06T19:04:37.407Z,17.10
2018-09-06T19:07:09.279Z,17.10
2018-09-06T19:09:41.795Z,17.10
2018-09-06T19:12:11.669Z,17.10
2018-09-06T19:14:39.983Z,17.10
2018-09-06T19:17:08.396Z,17.10
2018-09-06T19:19:37.597Z,17.10
2018-09-06T19:22:09.238Z,17.00
2018-09-06T19:24:39.882Z,17.10
2018-09-06T19:27:12.273Z,17.00
2018-09-06T19:29:40.982Z,17.00
2018-09-06T19:32:11.417Z,17.00
2018-09-06T19:34:40.602Z,16.90
2018-09-06T19:37:16.408Z,16.90
2018-09-06T19:39:47.503Z,16.80
2018-09-06T19:42:35.846Z,16.80
2018-09-06T19:45:04.749Z,16.70
2018-09-06T19:47:33.077Z,16.60
2018-09-06T19:50:01.997Z,16.50
2018-09-06T19:52:33.765Z,16.50
2018-09-06T19:55:03.027Z,16.40
2018-09-06T19:57:32.559Z,16.30
2018-09-06T20:00:03.414Z,16.30
2018-09-06T20:02:36.521Z,16.30
2018-09-06T20:05:07.018Z,16.30
2018-09-06T20:07:37.138Z,16.20
2018-09-06T20:10:06.347Z,16.20
2018-09-06T20:12:35.769Z,16.10
2018-09-06T20:15:09.686Z,16.00
2018-09-06T20:17:39.273Z,16.00
2018-09-06T20:20:07.841Z,16.00
2018-09-06T20:22:37.677Z,16.00
2018-09-06T20:25:05.967Z,16.00
2018-09-06T20:27:35.393Z,15.90
2018-09-06T20:30:04.309Z,16.00
2018-09-06T20:32:33.673Z,16.00
2018-09-06T20:35:03.965Z,16.00
2018-09-06T20:37:33.478Z,16.00
2018-09-06T20:40:02.741Z,16.00
2018-09-06T20:42:35.273Z,16.00
2018-09-06T20:45:04.160Z,16.00
2018-09-06T20:47:33.054Z,16.00
2018-09-06T20:50:03.612Z,16.00
2018-09-06T20:52:32.000Z,16.00
2018-09-06T20:55:02.226Z,16.00
2018-09-06T20:57:31.660Z,16.00
2018-09-06T21:00:01.066Z,16.00
2018-09-06T21:02:35.338Z,16.00
2018-09-06T21:05:04.939Z,16.00
2018-09-06T21:07:34.695Z,16.00
2018-09-06T21:10:05.611Z,16.00
2018-09-06T21:12:34.606Z,15.90
2018-09-06T21:15:07.309Z,15.90
2018-09-06T21:17:39.446Z,15.80
2018-09-06T21:20:15.693Z,15.70
2018-09-06T21:22:44.026Z,15.70
2018-09-06T21:25:12.291Z,15.70
2018-09-06T21:27:42.360Z,15.70
2018-09-06T21:30:11.266Z,15.70
2018-09-06T21:32:40.012Z,15.60
2018-09-06T21:35:09.794Z,15.60
2018-09-06T21:37:39.394Z,15.60
2018-09-06T21:40:07.693Z,15.60
2018-09-06T21:42:35.858Z,15.60
2018-09-06T21:45:07.954Z,15.50
2018-09-06T21:47:36.158Z,15.60
2018-09-06T21:50:04.456Z,15.50
2018-09-06T21:52:32.818Z,15.50
2018-09-06T21:55:01.054Z,15.50
2018-09-06T21:57:29.253Z,15.50
2018-09-06T21:59:57.477Z,15.50
2018-09-06T22:02:31.151Z,15.40
2018-09-06T22:04:59.657Z,15.50
2018-09-06T22:07:28.166Z,15.40
2018-09-06T22:09:56.385Z,15.50
2018-09-06T22:12:24.766Z,15.40
2018-09-06T22:14:52.960Z,15.40
2018-09-06T22:17:21.202Z,15.50
2018-09-06T22:19:49.696Z,15.50
2018-09-06T22:22:17.893Z,15.40
2018-09-06T22:24:46.081Z,15.40
2018-09-06T22:27:14.385Z,15.40
2018-09-06T22:29:42.605Z,15.40
2018-09-06T22:32:10.864Z,15.40
2018-09-06T22:34:39.238Z,15.40
2018-09-06T22:37:07.518Z,15.40
2018-09-06T22:39:36.648Z,15.40
2018-09-06T22:42:04.934Z,15.40
2018-09-06T22:44:33.203Z,15.30
2018-09-06T22:47:02.295Z,15.30
2018-09-06T22:49:30.535Z,15.30
2018-09-06T22:51:58.733Z,15.30
2018-09-06T22:54:26.934Z,15.30
2018-09-06T22:56:55.522Z,15.20
2018-09-06T22:59:23.770Z,15.10
2018-09-06T23:01:51.989Z,15.20
2018-09-06T23:04:20.229Z,15.30
2018-09-06T23:06:48.440Z,15.20
2018-09-06T23:09:16.636Z,15.20
2018-09-06T23:11:45.150Z,15.20
2018-09-06T23:14:13.353Z,15.20
2018-09-06T23:16:41.550Z,15.20
2018-09-06T23:19:09.881Z,15.10
2018-09-06T23:21:38.130Z,15.10
2018-09-06T23:24:06.438Z,15.10
2018-09-06T23:26:35.221Z,15.20
2018-09-06T23:29:03.460Z,15.10
2018-09-06T23:31:31.693Z,15.10
2018-09-06T23:33:59.927Z,15.10
2018-09-06T23:36:28.533Z,15.10
2018-09-06T23:38:56.765Z,15.10
2018-09-06T23:41:25.921Z,15.10
2018-09-06T23:43:54.149Z,15.10
2018-09-06T23:46:23.387Z,15.10
2018-09-06T23:48:52.394Z,15.10
2018-09-06T23:51:20.619Z,15.10
2018-09-06T23:53:48.831Z,15.10
2018-09-06T23:56:17.173Z,15.00
2018-09-06T23:58:45.398Z,15.00
